createdAt,value
2023-04-15T00:00:40.722Z,30.98
2023-04-15T00:04:40.732Z,30.75
2023-04-15T00:08:40.537Z,30.92
2023-04-15T00:12:40.372Z,29.58
2023-04-15T00:16:40.496Z,30.4
2023-04-15T00:20:41.266Z,30.58
2023-04-15T00:24:40.411Z,31.95
2023-04-15T00:28:40.429Z,33.53
2023-04-15T00:32:40.536Z,30.75
2023-04-15T00:36:40.328Z,33.67
2023-04-15T00:40:40.411Z,33.47
2023-04-15T00:44:40.450Z,35.08
2023-04-15T00:48:39.968Z,33.65
2023-04-15T00:52:40.468Z,30.5
2023-04-15T00:56:40.531Z,33.28
2023-04-15T01:00:40.512Z,33.9
2023-04-15T01:04:40.651Z,35.17
2023-04-15T01:08:40.473Z,32.22
2023-04-15T01:12:40.653Z,36.47
2023-04-15T01:16:40.620Z,35.53
2023-04-15T01:20:40.509Z,37.5
2023-04-15T01:24:40.436Z,33.25
2023-04-15T01:28:40.868Z,36.9
2023-04-15T01:32:40.812Z,36.42
2023-04-15T01:36:40.499Z,39.53
2023-04-15T01:40:40.550Z,37
2023-04-15T01:44:40.883Z,36.2
2023-04-15T01:48:40.927Z,36.97
2023-04-15T01:52:40.433Z,37.95
2023-04-15T01:56:40.442Z,36.45
2023-04-15T02:00:40.534Z,38.3
2023-04-15T02:04:40.352Z,37.22
2023-04-15T02:08:40.415Z,36.5
2023-04-15T02:12:40.606Z,37.85
2023-04-15T02:16:40.403Z,37.75
2023-04-15T02:20:40.541Z,36.45
2023-04-15T02:24:40.193Z,34.83
2023-04-15T02:28:40.806Z,35.25
2023-04-15T02:32:40.566Z,34.4
2023-04-15T02:36:40.295Z,34.8
2023-04-15T02:40:40.564Z,35.08
2023-04-15T02:44:40.504Z,33.58
2023-04-15T02:48:41.248Z,33.33
2023-04-15T02:52:40.452Z,31.3
2023-04-15T02:56:40.603Z,29.67
2023-04-15T03:00:40.936Z,28.58
2023-04-15T03:04:40.520Z,27.13
2023-04-15T03:08:39.876Z,25.95
2023-04-15T03:12:40.332Z,24.1
2023-04-15T03:16:40.491Z,23.7
2023-04-15T03:20:40.691Z,22.52
2023-04-15T03:24:40.518Z,24.2
2023-04-15T03:28:41.255Z,21.58
2023-04-15T03:32:40.579Z,21.75
2023-04-15T03:36:40.568Z,20.3
2023-04-15T03:40:40.503Z,20.12
2023-04-15T03:44:40.528Z,19.75
2023-04-15T03:48:40.501Z,17.42
2023-04-15T03:52:40.506Z,18.52
2023-04-15T03:56:40.573Z,19.7
2023-04-15T04:00:41.032Z,18.08
2023-04-15T04:04:40.897Z,18.85
2023-04-15T04:08:40.580Z,17.83
2023-04-15T04:12:40.418Z,16.62
2023-04-15T04:16:40.667Z,16.27
2023-04-15T04:20:40.454Z,17.65
2023-04-15T04:24:39.743Z,16.42
2023-04-15T04:28:40.914Z,16.37
2023-04-15T04:32:40.647Z,16.67
2023-04-15T04:36:40.406Z,15.4
2023-04-15T04:40:40.939Z,16.62
2023-04-15T04:44:39.696Z,15.65
2023-04-15T04:48:40.638Z,16.5
2023-04-15T04:52:40.442Z,16.73
2023-04-15T04:56:40.724Z,17.92
2023-04-15T05:00:40.595Z,18.02
2023-04-15T05:04:40.491Z,17.05
2023-04-15T05:08:40.575Z,17.23
2023-04-15T05:12:40.411Z,17.3
2023-04-15T05:16:40.250Z,16.4
2023-04-15T05:20:39.902Z,16.55
2023-04-15T05:24:41.203Z,16.42
2023-04-15T05:28:40.663Z,17.02
2023-04-15T05:32:40.569Z,18.1
2023-04-15T05:36:39.722Z,18.12
2023-04-15T05:40:41.197Z,19
2023-04-15T05:44:40.466Z,19.4
2023-04-15T05:48:40.477Z,19.95
2023-04-15T05:52:40.484Z,19.67
2023-04-15T05:56:40.298Z,19.1
2023-04-15T06:00:40.687Z,20.58
2023-04-15T06:04:40.598Z,18.92
2023-04-15T06:08:40.837Z,19.8
2023-04-15T06:12:40.542Z,19.87
2023-04-15T06:16:40.732Z,22
2023-04-15T06:20:40.464Z,21.23
2023-04-15T06:24:39.819Z,24.9
2023-04-15T06:28:40.676Z,23.05
2023-04-15T06:32:40.557Z,21.62
2023-04-15T06:36:40.392Z,22.92
2023-04-15T06:40:40.568Z,20.12
2023-04-15T06:44:39.668Z,23.08
2023-04-15T06:48:40.547Z,22.98
2023-04-15T06:52:40.699Z,23.65
2023-04-15T06:56:40.526Z,25.67
2023-04-15T07:00:40.948Z,22.42
2023-04-15T07:04:40.530Z,23.23
2023-04-15T07:08:40.407Z,23.2
2023-04-15T07:12:41.134Z,22.9
2023-04-15T07:16:40.573Z,22.35
2023-04-15T07:20:40.493Z,23.42
2023-04-15T07:24:39.785Z,24.17
2023-04-15T07:28:40.328Z,23.12
2023-04-15T07:32:40.552Z,22.95
2023-04-15T07:36:40.635Z,21.85
2023-04-15T07:40:40.790Z,23.42
2023-04-15T07:44:39.587Z,23.1
2023-04-15T07:48:40.704Z,21.98
2023-04-15T07:52:40.610Z,21.92
2023-04-15T07:56:40.427Z,23.52
2023-04-15T08:00:40.594Z,23.5
2023-04-15T08:04:40.652Z,24.3
2023-04-15T08:08:39.763Z,25.08
2023-04-15T08:12:40.943Z,23.8
2023-04-15T08:16:40.565Z,25.67
2023-04-15T08:20:40.504Z,24.12
2023-04-15T08:24:40.723Z,25.83
2023-04-15T08:28:40.534Z,26.02
2023-04-15T08:32:40.572Z,26.05
2023-04-15T08:36:40.701Z,28.23
2023-04-15T08:40:41.159Z,25.27
2023-04-15T08:44:40.411Z,27.58
2023-04-15T08:48:40.567Z,28
2023-04-15T08:52:40.464Z,28.87
2023-04-15T08:56:40.498Z,28.38
2023-04-15T09:00:41.064Z,30.35
2023-04-15T09:04:39.785Z,28.7
2023-04-15T09:08:40.447Z,29.9
2023-04-15T09:12:40.392Z,30.5
2023-04-15T09:16:40.724Z,32.1
2023-04-15T09:20:40.666Z,32.8
2023-04-15T09:24:40.580Z,32.95
2023-04-15T09:28:40.589Z,32.22
2023-04-15T09:32:40.467Z,38.97
2023-04-15T09:36:40.870Z,29
2023-04-15T09:40:40.345Z,18.67
2023-04-15T09:44:39.719Z,5.53
2023-04-15T09:48:40.784Z,4.3
2023-04-15T09:52:40.405Z,2.7
2023-04-15T09:56:40.384Z,2.87
2023-04-15T10:00:40.993Z,2.28
2023-04-15T10:04:40.726Z,2.67
2023-04-15T10:08:40.827Z,2.42
2023-04-15T10:12:40.477Z,2.7
2023-04-15T10:16:40.598Z,2.53
2023-04-15T10:20:40.756Z,2.9
2023-04-15T10:24:40.212Z,2.65
2023-04-15T10:28:39.782Z,2.45
2023-04-15T10:32:41.172Z,2.42
2023-04-15T10:36:40.390Z,2.08
2023-04-15T10:40:40.563Z,1.95
2023-04-15T10:44:40.178Z,2.28
2023-04-15T10:48:40.428Z,1.98
2023-04-15T10:52:40.319Z,1.7
2023-04-15T10:56:40.633Z,1.65
2023-04-15T11:00:40.667Z,1.7
2023-04-15T11:04:41.866Z,1.67
2023-04-15T11:08:40.429Z,4.15
2023-04-15T11:12:40.450Z,1.75
2023-04-15T11:16:40.423Z,1.2
2023-04-15T11:20:40.821Z,1.52
2023-04-15T11:24:41.224Z,1.5
2023-04-15T11:28:40.512Z,1.5
2023-04-15T11:32:40.624Z,1.55
2023-04-15T11:36:40.490Z,1.35
2023-04-15T11:40:40.874Z,2.6
2023-04-15T11:44:40.252Z,1.65
2023-04-15T11:48:40.536Z,1.48
2023-04-15T11:52:40.895Z,1.27
2023-04-15T11:56:40.449Z,1.6
2023-04-15T12:00:41.005Z,1.67
2023-04-15T12:04:41.200Z,1.87
2023-04-15T12:08:40.516Z,2.1
2023-04-15T12:12:40.411Z,1.92
2023-04-15T12:16:47.957Z,2.03
2023-04-15T12:20:40.880Z,1.3
2023-04-15T12:24:39.734Z,2.03
2023-04-15T12:28:40.171Z,1.8
2023-04-15T12:32:42.946Z,2.15
2023-04-15T12:36:39.353Z,3.5
2023-04-15T12:40:40.640Z,2.08
2023-04-15T12:44:40.738Z,2.25
2023-04-15T12:48:40.632Z,1.65
2023-04-15T12:52:40.498Z,2.65
2023-04-15T12:56:40.216Z,3.35
2023-04-15T13:00:40.529Z,2.33
2023-04-15T13:04:40.656Z,2.75
2023-04-15T13:08:45.254Z,2.85
2023-04-15T13:12:40.500Z,2.75
2023-04-15T13:16:40.776Z,3.6
2023-04-15T13:20:40.576Z,3.75
2023-04-15T13:24:40.519Z,2.15
2023-04-15T13:28:40.473Z,2.5
2023-04-15T13:32:40.903Z,2.4
2023-04-15T13:36:40.345Z,2.92
2023-04-15T13:40:40.572Z,2.58
2023-04-15T13:44:40.169Z,10.88
2023-04-15T13:48:40.930Z,3.28
2023-04-15T13:52:40.697Z,3.1
2023-04-15T13:56:40.743Z,3.47
2023-04-15T14:00:40.734Z,2.95
2023-04-15T14:04:40.616Z,3.28
2023-04-15T14:08:39.556Z,2.75
2023-04-15T14:12:40.748Z,3.6
2023-04-15T14:16:40.514Z,3.15
2023-04-15T14:20:39.610Z,3.35
2023-04-15T14:24:40.903Z,3.5
2023-04-15T14:28:40.619Z,3.4
2023-04-15T14:32:40.630Z,4.1
2023-04-15T14:36:40.599Z,3.9
2023-04-15T14:40:41.143Z,3.7
2023-04-15T14:44:40.753Z,4.57
2023-04-15T14:48:40.573Z,4.07
2023-04-15T14:52:41.052Z,3.33
2023-04-15T14:56:40.471Z,4
2023-04-15T15:00:40.676Z,3.28
2023-04-15T15:04:40.752Z,3.2
2023-04-15T15:08:40.603Z,3.42
2023-04-15T15:12:40.723Z,4.2
2023-04-15T15:16:40.611Z,3.55
2023-04-15T15:20:40.602Z,3.25
2023-04-15T15:24:40.091Z,3.55
2023-04-15T15:28:41.011Z,3.2
2023-04-15T15:32:40.396Z,3.7
2023-04-15T15:36:40.456Z,3.87
2023-04-15T15:40:40.472Z,3.83
2023-04-15T15:44:40.069Z,3.58
2023-04-15T15:48:41.173Z,3.6
2023-04-15T15:52:40.916Z,3.5
2023-04-15T15:56:40.548Z,3.7
2023-04-15T16:00:40.579Z,4.32
2023-04-15T16:04:40.562Z,4.03
2023-04-15T16:08:41.053Z,3.58
2023-04-15T16:12:40.414Z,3.4
2023-04-15T16:16:40.608Z,3.58
2023-04-15T16:20:40.688Z,3.97
2023-04-15T16:24:40.505Z,3.37
2023-04-15T16:28:40.644Z,3.83
2023-04-15T16:32:40.748Z,4.03
2023-04-15T16:36:40.936Z,4.93
2023-04-15T16:40:40.757Z,5.3
2023-04-15T16:44:40.405Z,4.43
2023-04-15T16:48:40.483Z,5.25
2023-04-15T16:52:40.512Z,5.03
2023-04-15T16:56:40.516Z,5.62
2023-04-15T17:00:40.912Z,5.8
2023-04-15T17:04:40.353Z,6.3
2023-04-15T17:08:41.013Z,6.3
2023-04-15T17:12:40.514Z,6.6
2023-04-15T17:16:40.544Z,6.18
2023-04-15T17:20:40.723Z,7.3
2023-04-15T17:24:40.533Z,7.62
2023-04-15T17:28:40.792Z,8.8
2023-04-15T17:32:40.465Z,7.43
2023-04-15T17:36:40.753Z,9.63
2023-04-15T17:40:40.504Z,10.8
2023-04-15T17:44:40.704Z,10.68
2023-04-15T17:48:40.370Z,10.2
2023-04-15T17:52:40.854Z,10.18
2023-04-15T17:56:40.449Z,9.5
2023-04-15T18:00:40.649Z,9.93
2023-04-15T18:04:40.946Z,9.52
2023-04-15T18:08:40.455Z,9.9
2023-04-15T18:12:41.235Z,9.65
2023-04-15T18:16:40.872Z,9.9
2023-04-15T18:20:40.869Z,10.35
2023-04-15T18:24:40.425Z,10.6
2023-04-15T18:28:39.826Z,11.07
2023-04-15T18:32:40.517Z,12.52
2023-04-15T18:36:40.452Z,14.2
2023-04-15T18:40:40.570Z,12.77
2023-04-15T18:44:40.407Z,14.52
2023-04-15T18:48:40.500Z,15.05
2023-04-15T18:52:40.350Z,15.9
2023-04-15T18:56:41.118Z,16.3
2023-04-15T19:00:40.474Z,16.35
2023-04-15T19:04:40.805Z,13.95
2023-04-15T19:08:40.404Z,13.62
2023-04-15T19:12:40.507Z,14.95
2023-04-15T19:16:40.510Z,15.13
2023-04-15T19:20:40.628Z,15.32
2023-04-15T19:24:40.499Z,16.75
2023-04-15T19:28:40.460Z,16.95
2023-04-15T19:32:40.549Z,16.52
2023-04-15T19:36:40.500Z,16.62
2023-04-15T19:40:40.615Z,18.3
2023-04-15T19:44:40.411Z,17.48
2023-04-15T19:48:40.400Z,17.92
2023-04-15T19:52:40.499Z,17.37
2023-04-15T19:56:40.402Z,18
2023-04-15T20:00:40.776Z,18.83
2023-04-15T20:04:40.891Z,16.83
2023-04-15T20:08:41.024Z,18.7
2023-04-15T20:12:50.925Z,17
2023-04-15T20:16:40.455Z,18.02
2023-04-15T20:20:40.631Z,17.42
2023-04-15T20:24:40.508Z,16.9
2023-04-15T20:28:40.808Z,16.23
2023-04-15T20:32:40.937Z,16.8
2023-04-15T20:36:40.543Z,15.73
2023-04-15T20:40:41.746Z,15
2023-04-15T20:44:40.459Z,15.6
2023-04-15T20:48:41.026Z,13.95
2023-04-15T20:52:40.524Z,13.8
2023-04-15T20:56:40.559Z,11.43
2023-04-15T21:00:40.332Z,10.55
2023-04-15T21:04:40.627Z,10
2023-04-15T21:08:40.503Z,8.1
2023-04-15T21:12:40.522Z,7.5
2023-04-15T21:16:40.530Z,6.18
2023-04-15T21:20:40.460Z,6.37
2023-04-15T21:24:40.261Z,5.53
2023-04-15T21:28:40.404Z,5.87
2023-04-15T21:32:40.602Z,5.9
2023-04-15T21:36:40.632Z,6.37
2023-04-15T21:40:40.996Z,6.47
2023-04-15T21:44:40.533Z,6.25
2023-04-15T21:48:40.775Z,7.47
2023-04-15T21:52:40.498Z,7.95
2023-04-15T21:56:41.138Z,8.57
2023-04-15T22:00:40.875Z,9.48
2023-04-15T22:04:39.688Z,8.45
2023-04-15T22:08:52.536Z,9.88
2023-04-15T22:12:40.619Z,10.2
2023-04-15T22:16:40.899Z,9.63
2023-04-15T22:20:40.454Z,11.57
2023-04-15T22:24:40.696Z,10.07
2023-04-15T22:28:40.417Z,10.38
2023-04-15T22:32:40.512Z,10.43
2023-04-15T22:36:40.487Z,9.98
2023-04-15T22:40:40.476Z,9.82
2023-04-15T22:44:40.449Z,10.2
2023-04-15T22:48:41.061Z,9.6
2023-04-15T22:52:40.484Z,10.23
2023-04-15T22:56:40.420Z,10
2023-04-15T23:00:41.070Z,10.82
2023-04-15T23:04:41.345Z,11.02
2023-04-15T23:08:40.609Z,12.98
2023-04-15T23:12:40.513Z,13.07
2023-04-15T23:16:40.414Z,11.43
2023-04-15T23:20:40.503Z,12.45
2023-04-15T23:24:40.431Z,12.4
2023-04-15T23:28:40.869Z,12.93
2023-04-15T23:32:40.495Z,11.27
2023-04-15T23:36:40.367Z,12.35
2023-04-15T23:40:40.569Z,12.2
2023-04-15T23:44:40.465Z,11.5
2023-04-15T23:48:40.556Z,13.6
2023-04-15T23:52:40.437Z,14.1
2023-04-15T23:56:40.569Z,12.8
